createdAt,value
2019-05-13T00:01:23.823Z,101663.31
2019-05-13T00:03:55.833Z,101666.73
2019-05-13T00:06:27.638Z,101661.61
2019-05-13T00:08:59.470Z,101664.84
2019-05-13T00:11:31.503Z,101661.61
2019-05-13T00:14:04.414Z,101658.14
2019-05-13T00:16:36.604Z,101659.12
2019-05-13T00:19:08.415Z,101653.73
2019-05-13T00:21:40.468Z,101660.02
2019-05-13T00:24:13.803Z,101653.63
2019-05-13T00:26:47.159Z,101652.33
2019-05-13T00:29:19.446Z,101655.47
2019-05-13T00:31:53.854Z,101650.80
2019-05-13T00:34:25.286Z,101658.09
2019-05-13T00:37:07.673Z,101656.51
2019-05-13T00:39:33.410Z,101664.75
2019-05-13T00:42:06.002Z,101663.69
2019-05-13T00:44:38.018Z,101654.32
2019-05-13T00:47:13.131Z,101654.21
2019-05-13T00:49:44.512Z,101659.81
2019-05-13T00:52:16.521Z,101658.45
2019-05-13T00:54:48.317Z,101658.94
2019-05-13T00:57:20.195Z,101659.56
2019-05-13T00:59:54.027Z,101667.73
2019-05-13T01:02:25.595Z,101660.66
2019-05-13T01:04:57.438Z,101658.50
2019-05-13T01:07:29.437Z,101657.92
2019-05-13T01:10:01.199Z,101663.55
2019-05-13T01:12:34.476Z,101658.55
2019-05-13T01:15:07.916Z,101668.98
2019-05-13T01:17:39.698Z,101678.43
2019-05-13T01:20:14.165Z,101673.98
2019-05-13T01:22:46.742Z,101679.84
2019-05-13T01:25:18.509Z,101673.44
2019-05-13T01:27:50.465Z,101671.55
2019-05-13T01:30:23.813Z,101666.36
2019-05-13T01:32:55.725Z,101665.27
2019-05-13T01:35:27.588Z,101661.28
2019-05-13T01:37:59.395Z,101663.56
2019-05-13T01:40:31.155Z,101653.52
2019-05-13T01:43:03.703Z,101644.59
2019-05-13T01:45:35.889Z,101651.47
2019-05-13T01:48:08.190Z,101654.45
2019-05-13T01:50:40.187Z,101664.98
2019-05-13T01:53:14.025Z,101666.34
2019-05-13T01:55:45.861Z,101670.12
2019-05-13T01:58:18.028Z,101670.28
2019-05-13T02:00:51.779Z,101672.54
2019-05-13T02:03:24.906Z,101669.55
2019-05-13T02:05:57.965Z,101671.71
2019-05-13T02:08:29.821Z,101662.98
2019-05-13T02:11:04.018Z,101671.25
2019-05-13T02:13:35.584Z,101670.74
2019-05-13T02:16:07.653Z,101677.39
2019-05-13T02:18:39.810Z,101675.41
2019-05-13T02:21:13.802Z,101670.74
2019-05-13T02:23:45.440Z,101673.64
2019-05-13T02:26:17.263Z,101677.00
2019-05-13T02:28:49.265Z,101678.83
2019-05-13T02:31:31.970Z,101677.00
2019-05-13T02:33:55.044Z,101676.93
2019-05-13T02:36:26.817Z,101676.47
2019-05-13T02:39:02.218Z,101678.73
2019-05-13T02:41:34.202Z,101688.84
2019-05-13T02:44:06.473Z,101693.39
2019-05-13T02:46:38.319Z,101693.11
2019-05-13T02:49:12.211Z,101705.13
2019-05-13T02:51:43.983Z,101704.84
2019-05-13T02:54:16.798Z,101705.08
2019-05-13T02:56:48.592Z,101708.39
2019-05-13T02:59:22.629Z,101701.25
2019-05-13T03:01:54.122Z,101707.75
2019-05-13T03:04:26.083Z,101707.23
2019-05-13T03:06:57.843Z,101717.08
2019-05-13T03:09:32.473Z,101714.87
2019-05-13T03:12:04.360Z,101716.02
2019-05-13T03:14:36.741Z,101706.75
2019-05-13T03:17:23.783Z,101716.40
2019-05-13T03:19:55.538Z,101710.16
2019-05-13T03:22:27.531Z,101707.13
2019-05-13T03:25:02.839Z,101708.78
2019-05-13T03:27:34.270Z,101702.56
2019-05-13T03:30:06.604Z,101709.29
2019-05-13T03:32:50.311Z,101714.53
2019-05-13T03:35:16.591Z,101716.63
2019-05-13T03:37:45.639Z,101723.19
2019-05-13T03:40:18.543Z,101723.41
2019-05-13T03:42:53.380Z,101737.26
2019-05-13T03:45:27.948Z,101729.88
2019-05-13T03:48:04.279Z,101734.69
2019-05-13T03:50:36.033Z,101728.27
2019-05-13T03:53:07.951Z,101730.20
2019-05-13T03:55:43.182Z,101734.85
2019-05-13T03:58:13.735Z,101735.10
2019-05-13T04:00:46.614Z,101741.23
2019-05-13T04:03:18.724Z,101743.42
2019-05-13T04:05:52.831Z,101745.84
2019-05-13T04:08:24.303Z,101751.78
2019-05-13T04:10:57.478Z,101749.46
2019-05-13T04:13:29.533Z,101746.94
2019-05-13T04:16:03.958Z,101752.91
2019-05-13T04:18:35.640Z,101747.05
2019-05-13T04:21:07.593Z,101753.14
2019-05-13T04:23:42.327Z,101759.25
2019-05-13T04:26:14.611Z,101762.47
2019-05-13T04:28:46.711Z,101767.25
2019-05-13T04:31:18.823Z,101775.95
2019-05-13T04:33:53.081Z,101773.80
2019-05-13T04:36:24.385Z,101772.39
2019-05-13T04:38:56.162Z,101773.61
2019-05-13T04:41:28.142Z,101776.22
2019-05-13T04:44:02.653Z,101776.91
2019-05-13T04:46:33.680Z,101776.49
2019-05-13T04:49:05.930Z,101781.58
2019-05-13T04:51:41.868Z,101786.13
2019-05-13T04:54:13.285Z,101786.83
2019-05-13T04:56:45.525Z,101793.77
2019-05-13T04:59:17.338Z,101798.69
2019-05-13T05:02:36.817Z,101793.20
2019-05-13T05:05:32.769Z,101798.03
2019-05-13T05:09:08.371Z,101800.87
2019-05-13T05:12:23.282Z,101803.05
2019-05-13T05:15:41.727Z,101794.91
2019-05-13T05:19:13.568Z,101796.17
2019-05-13T05:22:02.752Z,101789.59
2019-05-13T05:25:01.980Z,101793.66
2019-05-13T05:28:04.387Z,101796.14
2019-05-13T05:31:51.947Z,101801.00
2019-05-13T05:35:26.134Z,101802.06
2019-05-13T05:38:31.674Z,101792.05
2019-05-13T05:41:05.751Z,101794.62
2019-05-13T05:43:45.224Z,101800.22
2019-05-13T05:46:17.428Z,101789.24
2019-05-13T05:48:53.165Z,101798.21
2019-05-13T05:51:27.874Z,101801.31
2019-05-13T05:54:03.743Z,101801.50
2019-05-13T05:56:36.885Z,101806.00
2019-05-13T05:59:12.513Z,101808.98
2019-05-13T06:01:48.212Z,101810.52
2019-05-13T06:04:22.244Z,101818.47
2019-05-13T06:06:56.993Z,101825.53
2019-05-13T06:09:28.750Z,101825.94
2019-05-13T06:12:01.693Z,101825.27
2019-05-13T06:14:34.388Z,101824.44
2019-05-13T06:17:06.372Z,101825.50
2019-05-13T06:19:38.197Z,101831.10
2019-05-13T06:22:12.312Z,101835.62
2019-05-13T06:24:45.720Z,101844.66
2019-05-13T06:27:17.625Z,101840.05
2019-05-13T06:29:52.615Z,101843.94
2019-05-13T06:32:26.233Z,101838.85
2019-05-13T06:34:57.763Z,101846.98
2019-05-13T06:37:32.041Z,101844.46
2019-05-13T06:40:03.171Z,101850.11
2019-05-13T06:42:34.993Z,101848.66
2019-05-13T06:45:07.789Z,101848.86
2019-05-13T06:47:41.326Z,101844.92
2019-05-13T06:50:13.448Z,101846.19
2019-05-13T06:52:45.674Z,101851.44
2019-05-13T06:55:17.702Z,101849.41
2019-05-13T06:57:51.788Z,101854.49
2019-05-13T07:00:23.503Z,101858.95
2019-05-13T07:02:55.646Z,101856.26
2019-05-13T07:05:27.385Z,101866.19
2019-05-13T07:08:01.810Z,101866.36
2019-05-13T07:10:33.134Z,101863.52
2019-05-13T07:13:06.115Z,101863.84
2019-05-13T07:15:37.869Z,101866.72
2019-05-13T07:18:11.775Z,101861.21
2019-05-13T07:20:43.450Z,101860.87
2019-05-13T07:23:15.749Z,101868.75
2019-05-13T07:25:47.526Z,101869.66
2019-05-13T07:28:21.946Z,101873.95
2019-05-13T07:30:53.892Z,101875.13
2019-05-13T07:33:26.084Z,101885.30
2019-05-13T07:36:02.389Z,101881.59
2019-05-13T07:38:34.977Z,101877.79
2019-05-13T07:41:07.616Z,101880.58
2019-05-13T07:43:42.483Z,101885.30
2019-05-13T07:46:13.255Z,101885.30
2019-05-13T07:48:45.123Z,101887.87
2019-05-13T07:51:16.885Z,101895.06
2019-05-13T07:53:51.604Z,101887.98
2019-05-13T07:56:22.601Z,101883.45
2019-05-13T07:58:54.444Z,101888.97
2019-05-13T08:01:26.247Z,101891.08
2019-05-13T08:03:58.110Z,101886.77
2019-05-13T08:06:32.248Z,101889.47
2019-05-13T08:09:05.707Z,101889.86
2019-05-13T08:11:56.354Z,101885.48
2019-05-13T08:14:12.347Z,101889.77
2019-05-13T08:16:44.355Z,101889.91
2019-05-13T08:19:16.454Z,101892.67
2019-05-13T08:21:48.312Z,101895.38
2019-05-13T08:24:22.664Z,101889.33
2019-05-13T08:26:53.723Z,101889.71
2019-05-13T08:29:25.571Z,101890.09
2019-05-13T08:31:57.461Z,101896.80
2019-05-13T08:34:29.259Z,101901.33
2019-05-13T08:37:02.746Z,101904.09
2019-05-13T08:39:38.357Z,101898.58
2019-05-13T08:42:16.063Z,101888.97
2019-05-13T08:44:41.917Z,101891.22
2019-05-13T08:47:13.711Z,101895.30
2019-05-13T08:49:45.564Z,101903.81
2019-05-13T08:52:17.309Z,101899.16
2019-05-13T08:54:52.232Z,101911.98
2019-05-13T08:57:23.122Z,101906.42
2019-05-13T08:59:55.201Z,101902.67
2019-05-13T09:02:27.009Z,101901.89
2019-05-13T09:04:59.098Z,101905.50
2019-05-13T09:07:32.154Z,101907.34
2019-05-13T09:10:05.373Z,101909.84
2019-05-13T09:12:40.338Z,101911.28
2019-05-13T09:15:12.054Z,101904.94
2019-05-13T09:17:44.535Z,101909.30
2019-05-13T09:20:16.511Z,101913.73
2019-05-13T09:22:48.322Z,101915.95
2019-05-13T09:25:21.578Z,101921.59
2019-05-13T09:27:53.566Z,101917.68
2019-05-13T09:30:27.391Z,101919.20
2019-05-13T09:32:59.062Z,101916.86
2019-05-13T09:35:31.625Z,101916.86
2019-05-13T09:38:03.550Z,101933.52
2019-05-13T09:40:36.182Z,101928.31
2019-05-13T09:43:07.954Z,101925.17
2019-05-13T09:45:41.777Z,101925.88
2019-05-13T09:48:13.646Z,101931.22
2019-05-13T09:50:45.904Z,101934.75
2019-05-13T09:53:17.669Z,101938.98
2019-05-13T09:55:52.136Z,101941.15
2019-05-13T09:58:23.255Z,101944.94
2019-05-13T10:00:55.403Z,101942.14
2019-05-13T10:03:29.606Z,101944.87
2019-05-13T10:06:02.353Z,101940.44
2019-05-13T10:08:35.677Z,101941.73
2019-05-13T10:11:07.799Z,101944.66
2019-05-13T10:13:39.564Z,101951.14
2019-05-13T10:16:12.434Z,101950.30
2019-05-13T10:18:44.589Z,101950.30
2019-05-13T10:21:16.667Z,101945.03
2019-05-13T10:23:48.443Z,101944.19
2019-05-13T10:26:22.655Z,101943.75
2019-05-13T10:28:55.351Z,101939.55
2019-05-13T10:31:27.226Z,101940.88
2019-05-13T10:33:59.052Z,101941.11
2019-05-13T10:36:30.931Z,101945.17
2019-05-13T10:39:02.748Z,101946.61
2019-05-13T10:41:34.927Z,101943.58
2019-05-13T10:44:06.836Z,101943.05
2019-05-13T10:46:42.662Z,101943.95
2019-05-13T10:49:14.868Z,101949.02
2019-05-13T10:51:46.710Z,101952.56
2019-05-13T10:54:18.511Z,101947.40
2019-05-13T10:56:53.174Z,101945.67
2019-05-13T10:59:24.163Z,101948.88
2019-05-13T11:01:56.019Z,101947.12
2019-05-13T11:04:27.799Z,101944.73
2019-05-13T11:07:02.357Z,101943.89
2019-05-13T11:09:33.566Z,101944.16
2019-05-13T11:12:07.901Z,101948.41
2019-05-13T11:14:42.212Z,101952.59
2019-05-13T11:17:14.224Z,101956.74
2019-05-13T11:19:45.998Z,101958.58
2019-05-13T11:22:17.868Z,101958.27
2019-05-13T11:24:51.858Z,101958.91
2019-05-13T11:27:23.633Z,101955.74
2019-05-13T11:29:55.578Z,101962.27
2019-05-13T11:32:27.426Z,101955.54
2019-05-13T11:35:01.692Z,101954.22
2019-05-13T11:37:33.066Z,101960.76
2019-05-13T11:40:04.938Z,101955.52
2019-05-13T11:42:37.145Z,101948.73
2019-05-13T11:45:11.734Z,101952.41
2019-05-13T11:47:44.857Z,101952.77
2019-05-13T11:50:18.227Z,101952.78
2019-05-13T11:52:52.422Z,101950.77
2019-05-13T11:55:23.832Z,101943.88
2019-05-13T11:57:55.887Z,101939.91
2019-05-13T12:01:02.916Z,101942.55
2019-05-13T12:03:35.601Z,101941.70
2019-05-13T12:06:07.394Z,101948.20
2019-05-13T12:08:39.278Z,101950.14
2019-05-13T12:11:14.091Z,101951.64
2019-05-13T12:13:44.974Z,101943.32
2019-05-13T12:16:16.915Z,101946.80
2019-05-13T12:18:51.186Z,101949.00
2019-05-13T12:21:22.614Z,101952.08
2019-05-13T12:23:56.267Z,101942.34
2019-05-13T12:26:28.079Z,101949.76
2019-05-13T12:29:02.844Z,101946.44
2019-05-13T12:31:33.870Z,101952.64
2019-05-13T12:34:05.871Z,101952.11
2019-05-13T12:36:37.790Z,101947.64
2019-05-13T12:39:13.846Z,101952.48
2019-05-13T12:41:43.539Z,101944.78
2019-05-13T12:44:16.788Z,101943.79
2019-05-13T12:46:54.102Z,101940.98
2019-05-13T12:49:32.078Z,101933.61
2019-05-13T12:52:01.738Z,101934.71
2019-05-13T12:54:32.564Z,101929.03
2019-05-13T12:57:11.694Z,101929.10
2019-05-13T12:59:38.368Z,101928.27
2019-05-13T13:02:13.383Z,101929.50
2019-05-13T13:05:07.890Z,101930.56
2019-05-13T13:07:17.461Z,101931.39
2019-05-13T13:09:53.116Z,101929.70
2019-05-13T13:12:33.740Z,101925.17
2019-05-13T13:14:57.316Z,101928.86
2019-05-13T13:17:29.119Z,101927.25
2019-05-13T13:20:08.866Z,101922.04
2019-05-13T13:22:34.680Z,101925.45
2019-05-13T13:25:08.054Z,101923.59
2019-05-13T13:28:03.756Z,101920.42
2019-05-13T13:30:14.412Z,101917.05
2019-05-13T13:32:46.611Z,101915.09
2019-05-13T13:35:18.794Z,101917.95
2019-05-13T13:37:53.088Z,101915.59
2019-05-13T13:40:29.358Z,101915.92
2019-05-13T13:42:57.929Z,101910.08
2019-05-13T13:45:36.735Z,101917.78
2019-05-13T13:48:04.450Z,101917.47
2019-05-13T13:50:36.398Z,101919.46
2019-05-13T13:53:08.211Z,101918.98
2019-05-13T13:55:43.332Z,101926.86
2019-05-13T13:58:14.386Z,101919.67
2019-05-13T14:01:00.635Z,101918.12
2019-05-13T14:03:20.630Z,101923.28
2019-05-13T14:05:53.686Z,101925.30
2019-05-13T14:08:26.090Z,101929.78
2019-05-13T14:10:58.140Z,101934.38
2019-05-13T14:13:32.203Z,101936.30
2019-05-13T14:16:04.112Z,101937.78
2019-05-13T14:18:36.088Z,101940.61
2019-05-13T14:21:08.343Z,101939.78
2019-05-13T14:23:42.585Z,101944.64
2019-05-13T14:26:14.324Z,101943.08
2019-05-13T14:28:46.143Z,101943.52
2019-05-13T14:31:18.458Z,101940.94
2019-05-13T14:33:52.151Z,101941.89
2019-05-13T14:36:24.616Z,101940.56
2019-05-13T14:38:56.532Z,101934.06
2019-05-13T14:41:31.130Z,101934.31
2019-05-13T14:44:03.729Z,101940.30
2019-05-13T14:46:55.432Z,101942.39
2019-05-13T14:49:12.307Z,101942.02
2019-05-13T14:51:43.796Z,101944.83
2019-05-13T14:54:15.598Z,101934.91
2019-05-13T14:56:47.424Z,101943.98
2019-05-13T14:59:21.864Z,101933.47
2019-05-13T15:01:53.169Z,101925.38
2019-05-13T15:04:24.961Z,101939.63
2019-05-13T15:06:56.998Z,101941.61
2019-05-13T15:09:31.264Z,101940.23
2019-05-13T15:12:02.553Z,101941.61
2019-05-13T15:14:34.418Z,101945.36
2019-05-13T15:17:07.647Z,101942.59
2019-05-13T15:19:41.425Z,101942.23
2019-05-13T15:22:16.050Z,101942.17
2019-05-13T15:24:47.438Z,101944.08
2019-05-13T15:27:22.077Z,101943.64
2019-05-13T15:29:53.167Z,101935.94
2019-05-13T15:32:25.243Z,101939.21
2019-05-13T15:34:57.062Z,101940.84
2019-05-13T15:37:31.958Z,101929.69
2019-05-13T15:40:03.319Z,101933.98
2019-05-13T15:42:35.229Z,101927.35
2019-05-13T15:45:08.611Z,101928.45
2019-05-13T15:47:40.913Z,101928.81
2019-05-13T15:50:12.839Z,101927.75
2019-05-13T15:52:44.776Z,101925.53
2019-05-13T15:55:16.568Z,101928.54
2019-05-13T15:57:48.785Z,101921.78
2019-05-13T16:00:21.991Z,101923.39
2019-05-13T16:02:54.645Z,101921.92
2019-05-13T16:05:26.494Z,101922.14
2019-05-13T16:07:58.661Z,101923.05
2019-05-13T16:10:30.449Z,101925.16
2019-05-13T16:13:02.512Z,101926.16
2019-05-13T16:15:34.671Z,101918.20
2019-05-13T16:18:06.872Z,101923.17
2019-05-13T16:20:42.579Z,101917.59
2019-05-13T16:23:13.644Z,101923.83
2019-05-13T16:25:45.560Z,101922.63
2019-05-13T16:28:17.880Z,101924.59
2019-05-13T16:30:51.537Z,101927.44
2019-05-13T16:33:23.452Z,101926.97
2019-05-13T16:35:55.435Z,101929.34
2019-05-13T16:38:27.575Z,101927.61
2019-05-13T16:40:59.421Z,101928.37
2019-05-13T16:43:32.071Z,101930.22
2019-05-13T16:46:07.094Z,101935.06
2019-05-13T16:48:38.730Z,101932.90
2019-05-13T16:51:12.551Z,101933.55
2019-05-13T16:53:44.395Z,101936.64
2019-05-13T16:56:26.478Z,101931.87
2019-05-13T16:58:52.159Z,101930.56
2019-05-13T17:01:24.019Z,101930.73
2019-05-13T17:03:56.318Z,101926.97
2019-05-13T17:06:28.230Z,101926.64
2019-05-13T17:09:01.991Z,101927.14
2019-05-13T17:11:34.831Z,101930.34
2019-05-13T17:14:07.097Z,101926.88
2019-05-13T17:16:41.200Z,101926.60
2019-05-13T17:19:12.686Z,101932.35
2019-05-13T17:21:44.613Z,101927.67
2019-05-13T17:24:16.738Z,101929.45
2019-05-13T17:26:52.121Z,101920.78
2019-05-13T17:29:23.398Z,101922.79
2019-05-13T17:31:55.359Z,101919.32
2019-05-13T17:34:27.349Z,101916.63
2019-05-13T17:36:59.204Z,101911.37
2019-05-13T17:39:32.116Z,101915.75
2019-05-13T17:42:04.601Z,101914.17
2019-05-13T17:44:37.084Z,101913.82
2019-05-13T17:47:11.153Z,101913.55
2019-05-13T17:49:43.322Z,101907.45
2019-05-13T17:52:15.413Z,101914.13
2019-05-13T17:54:47.473Z,101922.91
2019-05-13T17:57:21.438Z,101917.71
2019-05-13T17:59:53.135Z,101925.58
2019-05-13T18:02:25.131Z,101922.95
2019-05-13T18:04:57.582Z,101926.11
2019-05-13T18:07:31.932Z,101930.95
2019-05-13T18:10:03.725Z,101926.41
2019-05-13T18:12:35.771Z,101937.59
2019-05-13T18:15:08.889Z,101947.91
2019-05-13T18:17:41.842Z,101943.83
2019-05-13T18:20:14.797Z,101946.45
2019-05-13T18:22:46.716Z,101949.55
2019-05-13T18:25:18.667Z,101951.32
2019-05-13T18:27:52.139Z,101953.89
2019-05-13T18:30:24.499Z,101960.81
2019-05-13T18:32:56.433Z,101956.83
2019-05-13T18:35:28.531Z,101948.28
2019-05-13T18:38:01.420Z,101952.27
2019-05-13T18:40:33.558Z,101958.60
2019-05-13T18:43:05.483Z,101952.76
2019-05-13T18:45:37.426Z,101952.81
2019-05-13T18:48:12.113Z,101945.35
2019-05-13T18:50:44.000Z,101935.78
2019-05-13T18:53:16.466Z,101930.53
2019-05-13T18:55:48.545Z,101933.03
2019-05-13T18:58:22.228Z,101928.45
2019-05-13T19:00:54.610Z,101934.09
2019-05-13T19:03:26.567Z,101940.33
2019-05-13T19:06:00.276Z,101951.87
2019-05-13T19:08:32.350Z,101946.48
2019-05-13T19:11:04.442Z,101949.95
2019-05-13T19:13:36.344Z,101945.04
2019-05-13T19:16:08.753Z,101945.45
2019-05-13T19:18:42.352Z,101944.89
2019-05-13T19:21:15.465Z,101939.64
2019-05-13T19:23:47.496Z,101936.22
2019-05-13T19:26:21.671Z,101927.78
2019-05-13T19:28:54.515Z,101931.44
2019-05-13T19:31:26.890Z,101932.62
2019-05-13T19:33:58.907Z,101935.55
2019-05-13T19:36:32.537Z,101938.75
2019-05-13T19:39:06.054Z,101935.24
2019-05-13T19:41:38.255Z,101933.19
2019-05-13T19:44:10.230Z,101935.30
2019-05-13T19:46:42.429Z,101928.98
2019-05-13T19:49:28.597Z,101929.04
2019-05-13T19:51:52.179Z,101934.98
2019-05-13T19:54:25.071Z,101927.48
2019-05-13T19:56:57.887Z,101928.42
2019-05-13T19:59:32.073Z,101922.05
2019-05-13T20:02:04.432Z,101923.16
2019-05-13T20:04:36.430Z,101922.59
2019-05-13T20:07:11.791Z,101922.02
2019-05-13T20:09:43.434Z,101914.56
2019-05-13T20:12:16.029Z,101918.02
2019-05-13T20:14:51.590Z,101919.89
2019-05-13T20:17:23.320Z,101920.45
2019-05-13T20:19:55.129Z,101915.72
2019-05-13T20:22:27.063Z,101916.28
2019-05-13T20:24:59.150Z,101913.30
2019-05-13T20:27:31.762Z,101916.08
2019-05-13T20:30:03.680Z,101922.72
2019-05-13T20:32:35.524Z,101917.80
2019-05-13T20:35:07.763Z,101922.43
2019-05-13T20:37:40.181Z,101921.91
2019-05-13T20:40:12.039Z,101918.64
2019-05-13T20:42:44.328Z,101915.13
2019-05-13T20:45:16.619Z,101916.91
2019-05-13T20:47:48.730Z,101920.70
2019-05-13T20:50:21.657Z,101922.33
2019-05-13T20:52:54.444Z,101920.66
2019-05-13T20:55:26.517Z,101926.83
2019-05-13T20:57:58.538Z,101929.78
2019-05-13T21:00:31.435Z,101931.33
2019-05-13T21:03:03.688Z,101929.66
2019-05-13T21:05:36.031Z,101923.80
2019-05-13T21:08:07.851Z,101926.60
2019-05-13T21:10:42.012Z,101914.30
2019-05-13T21:13:14.099Z,101922.77
2019-05-13T21:15:45.970Z,101920.34
2019-05-13T21:18:17.989Z,101925.63
2019-05-13T21:20:49.831Z,101925.34
2019-05-13T21:23:22.437Z,101925.25
2019-05-13T21:25:54.295Z,101924.03
2019-05-13T21:28:26.394Z,101926.91
2019-05-13T21:30:58.224Z,101922.98
2019-05-13T21:33:31.550Z,101924.72
2019-05-13T21:36:03.493Z,101923.69
2019-05-13T21:38:35.648Z,101919.99
2019-05-13T21:41:07.450Z,101920.88
2019-05-13T21:43:41.406Z,101919.53
2019-05-13T21:46:13.369Z,101917.38
2019-05-13T21:48:45.496Z,101911.37
2019-05-13T21:51:17.486Z,101912.73
2019-05-13T21:53:51.743Z,101915.72
2019-05-13T21:56:23.380Z,101909.66
2019-05-13T21:58:55.494Z,101903.79
2019-05-13T22:01:27.436Z,101904.59
2019-05-13T22:04:01.579Z,101893.74
2019-05-13T22:06:33.097Z,101888.67
2019-05-13T22:09:07.950Z,101885.64
2019-05-13T22:11:41.801Z,101886.75
2019-05-13T22:14:14.723Z,101874.49
2019-05-13T22:16:46.489Z,101872.39
2019-05-13T22:19:18.453Z,101875.00
2019-05-13T22:21:51.520Z,101876.70
2019-05-13T22:24:23.814Z,101865.28
2019-05-13T22:26:55.622Z,101865.62
2019-05-13T22:29:27.637Z,101866.84
2019-05-13T22:32:01.779Z,101867.77
2019-05-13T22:34:33.060Z,101865.58
2019-05-13T22:37:04.852Z,101863.51
2019-05-13T22:39:37.087Z,101864.06
2019-05-13T22:42:08.987Z,101865.84
2019-05-13T22:44:41.697Z,101868.55
2019-05-13T22:47:13.855Z,101864.80
2019-05-13T22:49:45.802Z,101863.49
2019-05-13T22:52:17.677Z,101863.91
2019-05-13T22:54:51.677Z,101856.36
2019-05-13T22:57:23.108Z,101853.78
2019-05-13T22:59:55.192Z,101850.50
2019-05-13T23:02:27.129Z,101853.29
2019-05-13T23:04:59.219Z,101849.16
2019-05-13T23:07:31.565Z,101849.20
2019-05-13T23:10:03.871Z,101843.63
2019-05-13T23:12:35.661Z,101835.98
2019-05-13T23:15:08.712Z,101843.37
2019-05-13T23:17:41.499Z,101838.09
2019-05-13T23:20:14.245Z,101837.16
2019-05-13T23:22:46.013Z,101833.67
2019-05-13T23:25:21.429Z,101833.16
2019-05-13T23:27:52.977Z,101836.66
2019-05-13T23:30:25.318Z,101831.30
2019-05-13T23:32:57.108Z,101831.38
2019-05-13T23:35:28.969Z,101832.11
2019-05-13T23:38:01.625Z,101826.87
2019-05-13T23:40:34.199Z,101827.63
2019-05-13T23:43:05.942Z,101825.81
2019-05-13T23:45:37.783Z,101820.45
2019-05-13T23:48:09.578Z,101816.14
2019-05-13T23:50:41.635Z,101816.23
2019-05-13T23:53:13.671Z,101816.94
2019-05-13T23:55:45.741Z,101808.16
2019-05-13T23:58:17.497Z,101799.55
